Time;durP1;ratioP1;P1;durP2;ratioP2;P2;SDS_P1;SDS_P2;PMS_P1;PMS_P2;Temp;Humidity;BMP_temperature;BMP_pressure;BME280_temperature;BME280_humidity;BME280_pressure;Samples;Min_cycle;Max_cycle;Signal;HPM_P1;HPM_P2
2023/05/24 00:00:28;;;;;;;4.50;2.03;;;9.00;99.90;;;;;;5074588;28;20632;-71
2023/05/24 00:02:56;;;;;;;4.20;1.70;;;9.00;99.90;;;;;;5074419;28;20185;-70
2023/05/24 00:05:22;;;;;;;5.40;2.07;;;8.90;99.90;;;;;;5074432;28;20332;-71
2023/05/24 00:07:48;;;;;;;4.67;2.23;;;8.90;99.90;;;;;;5073989;28;20424;-71
2023/05/24 00:10:14;;;;;;;8.73;1.97;;;8.90;99.90;;;;;;5075076;28;20595;-71
2023/05/24 00:12:40;;;;;;;6.73;2.60;;;8.80;99.90;;;;;;5056424;28;20658;-71
2023/05/24 00:15:06;;;;;;;11.80;2.00;;;8.80;99.90;;;;;;5075110;28;20416;-71
2023/05/24 00:17:33;;;;;;;5.13;1.50;;;8.80;99.90;;;;;;5074894;28;20198;-70
2023/05/24 00:19:59;;;;;;;3.10;2.03;;;8.70;99.90;;;;;;5075315;28;20413;-70
2023/05/24 00:22:24;;;;;;;7.67;1.83;;;8.70;99.90;;;;;;5074158;28;20824;-70
2023/05/24 00:24:50;;;;;;;9.93;2.03;;;8.70;99.90;;;;;;5074889;28;20162;-70
2023/05/24 00:27:16;;;;;;;4.97;1.90;;;8.60;99.90;;;;;;5074422;28;20622;-70
2023/05/24 00:29:41;;;;;;;6.03;2.07;;;8.60;99.90;;;;;;5074569;28;20159;-70
2023/05/24 00:32:07;;;;;;;2.90;1.60;;;8.60;99.90;;;;;;5074818;28;20539;-70
2023/05/24 00:34:32;;;;;;;5.80;1.63;;;8.50;99.90;;;;;;5074588;28;20576;-70
2023/05/24 00:36:59;;;;;;;4.40;1.77;;;8.50;99.90;;;;;;5074760;28;20194;-70
2023/05/24 00:39:25;;;;;;;4.13;2.07;;;8.40;99.90;;;;;;5074328;28;20174;-70
2023/05/24 00:41:50;;;;;;;5.57;1.60;;;8.40;99.90;;;;;;5074683;28;20827;-70
2023/05/24 00:44:16;;;;;;;4.67;1.67;;;8.40;99.90;;;;;;5074357;28;20524;-70
2023/05/24 00:46:42;;;;;;;5.70;1.77;;;8.30;99.90;;;;;;5056449;28;20561;-70
2023/05/24 00:49:08;;;;;;;4.17;1.43;;;8.30;99.90;;;;;;5074081;28;20167;-70
2023/05/24 00:51:35;;;;;;;2.40;1.40;;;8.30;99.90;;;;;;5074150;28;20212;-70
2023/05/24 00:54:01;;;;;;;2.67;1.20;;;8.20;99.90;;;;;;5074246;28;20495;-70
2023/05/24 00:56:27;;;;;;;2.47;1.40;;;8.20;99.90;;;;;;5074242;28;20921;-70
2023/05/24 00:58:56;;;;;;;3.30;1.93;;;8.10;99.90;;;;;;5074069;28;20424;-70
2023/05/24 01:01:25;;;;;;;6.03;2.57;;;8.10;99.90;;;;;;5056280;28;20256;-70
2023/05/24 01:03:54;;;;;;;4.37;2.30;;;8.10;99.90;;;;;;5074062;28;20396;-70
2023/05/24 01:06:19;;;;;;;2.47;1.27;;;8.10;99.90;;;;;;5073907;28;20452;-70
2023/05/24 01:08:51;;;;;;;5.83;1.50;;;8.00;99.90;;;;;;5073615;28;20512;-70
2023/05/24 01:11:44;;;;;;;3.63;1.70;;;8.00;99.90;;;;;;5074116;28;20167;-70
2023/05/24 01:14:26;;;;;;;2.40;1.23;;;7.90;99.90;;;;;;5073570;28;20423;-71
2023/05/24 01:16:58;;;;;;;3.30;1.87;;;7.90;99.90;;;;;;5073629;28;20400;-70
2023/05/24 01:19:43;;;;;;;9.23;2.10;;;7.80;99.90;;;;;;5073837;28;20815;-70
2023/05/24 01:22:33;;;;;;;4.10;1.50;;;7.80;99.90;;;;;;5073768;28;20956;-70
2023/05/24 01:25:08;;;;;;;1.57;1.30;;;7.70;99.90;;;;;;5073626;28;20734;-70
2023/05/24 01:27:36;;;;;;;2.67;1.67;;;7.70;99.90;;;;;;5073171;28;20422;-70
2023/05/24 01:30:03;;;;;;;6.23;1.93;;;7.70;99.90;;;;;;5073627;28;21015;-70
2023/05/24 01:32:29;;;;;;;4.90;2.10;;;7.60;99.90;;;;;;5073159;28;20480;-70
2023/05/24 01:34:54;;;;;;;2.00;1.60;;;7.60;99.90;;;;;;5072696;28;20396;-70
2023/05/24 01:37:20;;;;;;;4.30;1.77;;;7.60;99.90;;;;;;5072949;28;20424;-70
2023/05/24 01:39:46;;;;;;;3.57;1.87;;;7.50;99.90;;;;;;5073708;28;20635;-70
2023/05/24 01:42:46;;;;;;;3.70;2.07;;;7.50;99.90;;;;;;5073721;28;20166;-70
2023/05/24 01:45:28;;;;;;;2.20;1.30;;;7.50;99.90;;;;;;5051615;28;20542;-70
2023/05/24 01:48:17;;;;;;;3.83;2.30;;;7.40;99.90;;;;;;5073025;28;20560;-70
2023/05/24 01:50:57;;;;;;;4.63;1.97;;;7.40;99.90;;;;;;5073343;28;20442;-70
2023/05/24 01:53:25;;;;;;;2.43;1.67;;;7.40;99.90;;;;;;5073218;28;20388;-70
2023/05/24 01:55:54;;;;;;;3.53;1.23;;;7.30;99.90;;;;;;5073471;28;20521;-70
2023/05/24 01:58:22;;;;;;;2.40;1.73;;;7.30;99.90;;;;;;5072617;28;20927;-70
2023/05/24 02:00:49;;;;;;;5.10;1.97;;;7.30;99.90;;;;;;5073523;28;20405;-70
2023/05/24 02:03:15;;;;;;;3.53;2.00;;;7.30;99.90;;;;;;5073223;28;20415;-70
2023/05/24 02:05:43;;;;;;;4.90;2.10;;;7.30;99.90;;;;;;5073203;28;20448;-70
2023/05/24 02:08:09;;;;;;;2.27;1.67;;;7.30;99.90;;;;;;5072830;28;20479;-70
2023/05/24 02:10:37;;;;;;;3.40;2.03;;;7.20;99.90;;;;;;5073296;28;20814;-70
2023/05/24 02:13:02;;;;;;;4.73;1.90;;;7.20;99.90;;;;;;5072561;28;20531;-71
2023/05/24 02:15:29;;;;;;;5.63;1.80;;;7.20;99.90;;;;;;5073315;28;20447;-70
2023/05/24 02:17:55;;;;;;;10.40;1.93;;;7.20;99.90;;;;;;5072768;28;20213;-70
2023/05/24 02:20:24;;;;;;;1.93;1.40;;;7.20;99.90;;;;;;5072793;28;20408;-71
2023/05/24 02:22:49;;;;;;;1.70;1.47;;;7.20;99.90;;;;;;5072899;28;20405;-70
2023/05/24 02:25:15;;;;;;;6.33;2.00;;;7.20;99.90;;;;;;5073206;28;20463;-71
2023/05/24 02:27:40;;;;;;;2.73;1.80;;;7.20;99.90;;;;;;5073075;28;20646;-70
2023/05/24 02:30:07;;;;;;;5.20;2.77;;;7.10;99.90;;;;;;5072941;28;20241;-70
2023/05/24 02:32:33;;;;;;;4.40;2.37;;;7.20;99.90;;;;;;5072752;28;20158;-70
2023/05/24 02:35:00;;;;;;;6.30;2.43;;;7.10;99.90;;;;;;5072921;28;20404;-70
2023/05/24 02:37:26;;;;;;;3.57;1.70;;;7.10;99.90;;;;;;5072444;28;20416;-70
2023/05/24 02:39:52;;;;;;;7.97;2.10;;;7.20;99.90;;;;;;5072837;28;20800;-71
2023/05/24 02:42:17;;;;;;;7.30;2.83;;;7.20;99.90;;;;;;5072925;28;20454;-71
2023/05/24 02:44:46;;;;;;;3.10;1.80;;;7.10;99.90;;;;;;5073055;28;20166;-70
2023/05/24 02:47:12;;;;;;;4.23;2.40;;;7.10;99.90;;;;;;5076098;28;20550;-70
2023/05/24 02:49:38;;;;;;;3.50;1.93;;;7.10;99.90;;;;;;5077082;28;20407;-70
2023/05/24 02:52:04;;;;;;;5.33;2.57;;;7.10;99.90;;;;;;5077168;28;20172;-71
2023/05/24 02:54:29;;;;;;;10.53;2.77;;;7.10;99.90;;;;;;5077070;28;20237;-70
2023/05/24 02:56:56;;;;;;;2.63;1.83;;;7.10;99.90;;;;;;5058751;28;20471;-70
2023/05/24 02:59:22;;;;;;;3.27;2.00;;;7.10;99.90;;;;;;5077014;28;20214;-70
2023/05/24 03:01:48;;;;;;;2.33;1.83;;;7.10;99.90;;;;;;5077219;28;20402;-70
2023/05/24 03:04:13;;;;;;;4.10;2.30;;;7.10;99.90;;;;;;5076919;28;20407;-71
2023/05/24 03:06:39;;;;;;;8.27;2.77;;;7.10;99.90;;;;;;5076632;28;20200;-70
2023/05/24 03:09:05;;;;;;;1.93;1.47;;;7.10;99.90;;;;;;5076715;28;20174;-70
2023/05/24 03:11:30;;;;;;;11.03;3.43;;;7.10;99.90;;;;;;5076911;28;20893;-70
2023/05/24 03:13:56;;;;;;;6.30;3.43;;;7.00;99.90;;;;;;5076826;28;20182;-70
2023/05/24 03:16:21;;;;;;;8.97;2.67;;;7.00;99.90;;;;;;5076588;28;20177;-70
2023/05/24 03:18:49;;;;;;;2.80;1.93;;;7.00;99.90;;;;;;5076390;28;20212;-70
2023/05/24 03:21:16;;;;;;;2.70;2.03;;;7.00;99.90;;;;;;5076774;28;20163;-70
2023/05/24 03:23:42;;;;;;;3.63;2.40;;;7.00;99.90;;;;;;5076525;28;20404;-70
2023/05/24 03:26:07;;;;;;;9.53;2.33;;;7.00;99.90;;;;;;5058892;28;20475;-70
2023/05/24 03:28:32;;;;;;;3.70;1.93;;;7.00;99.90;;;;;;5076577;28;20205;-70
2023/05/24 03:30:58;;;;;;;6.30;2.90;;;7.00;99.90;;;;;;5076852;28;20166;-70
2023/05/24 03:33:24;;;;;;;4.00;2.20;;;7.00;99.90;;;;;;5076425;28;20159;-70
2023/05/24 03:35:50;;;;;;;3.40;2.07;;;7.00;99.90;;;;;;5076783;28;20167;-70
2023/05/24 03:38:15;;;;;;;4.07;1.77;;;7.00;99.90;;;;;;5076689;28;20555;-70
2023/05/24 03:40:41;;;;;;;2.17;1.50;;;7.00;99.90;;;;;;5076235;28;20718;-70
2023/05/24 03:43:06;;;;;;;5.17;1.90;;;7.00;99.90;;;;;;5076151;28;20205;-71
2023/05/24 03:45:32;;;;;;;5.33;2.40;;;7.00;99.90;;;;;;5076468;28;20307;-70
2023/05/24 03:47:57;;;;;;;3.80;2.27;;;7.00;99.90;;;;;;5075911;28;20186;-70
2023/05/24 03:50:23;;;;;;;3.57;2.57;;;7.00;99.90;;;;;;5076066;28;20776;-71
2023/05/24 03:52:49;;;;;;;5.83;2.50;;;7.00;99.90;;;;;;5076307;28;20198;-70
2023/05/24 03:55:15;;;;;;;5.83;2.67;;;7.10;99.90;;;;;;5076225;28;20253;-70
2023/05/24 03:57:41;;;;;;;3.87;2.20;;;7.10;99.90;;;;;;5074076;28;20448;-70
2023/05/24 04:00:07;;;;;;;2.67;2.30;;;7.20;99.90;;;;;;5075987;28;20242;-70
2023/05/24 04:02:33;;;;;;;6.60;2.60;;;7.20;99.90;;;;;;5075631;28;20447;-70
2023/05/24 04:04:58;;;;;;;4.77;2.80;;;7.20;99.90;;;;;;5075748;28;20408;-71
2023/05/24 04:07:24;;;;;;;6.40;2.90;;;7.30;99.90;;;;;;5075854;28;20186;-70
2023/05/24 04:09:49;;;;;;;4.57;3.07;;;7.30;99.90;;;;;;5076124;28;20166;-70
2023/05/24 04:12:15;;;;;;;6.00;3.87;;;7.40;99.90;;;;;;5076121;28;20248;-71
2023/05/24 04:14:40;;;;;;;6.07;4.87;;;7.40;99.90;;;;;;5076235;28;20240;-70
2023/05/24 04:17:06;;;;;;;5.97;2.87;;;7.50;99.90;;;;;;5075496;28;20218;-70
2023/05/24 04:19:32;;;;;;;4.97;2.87;;;7.60;99.90;;;;;;5075847;28;20197;-71
2023/05/24 04:21:57;;;;;;;3.03;2.27;;;7.60;99.90;;;;;;5057862;28;20416;-71
2023/05/24 04:24:23;;;;;;;4.50;2.50;;;7.70;99.90;;;;;;5075558;28;20176;-70
2023/05/24 04:26:49;;;;;;;4.60;2.87;;;7.80;99.90;;;;;;5074977;28;20237;-70
2023/05/24 04:29:14;;;;;;;3.93;3.00;;;7.90;99.90;;;;;;5075172;28;20628;-70
2023/05/24 04:31:43;;;;;;;6.50;2.87;;;7.90;99.90;;;;;;5076341;28;20167;-70
2023/05/24 04:34:11;;;;;;;5.33;3.07;;;8.00;99.90;;;;;;5076333;28;20550;-70
2023/05/24 04:36:37;;;;;;;8.83;3.40;;;8.10;99.90;;;;;;5076631;28;20419;-70
2023/05/24 04:39:04;;;;;;;6.40;2.00;;;8.10;99.90;;;;;;5076481;28;20405;-70
2023/05/24 04:41:34;;;;;;;9.13;2.90;;;8.20;99.90;;;;;;5076486;28;20890;-70
2023/05/24 04:44:00;;;;;;;6.73;2.97;;;8.30;99.90;;;;;;5076859;28;20409;-70
2023/05/24 04:46:26;;;;;;;6.40;2.30;;;8.40;99.90;;;;;;5075227;28;20455;-71
2023/05/24 04:48:53;;;;;;;8.20;2.97;;;8.50;99.90;;;;;;5074986;28;20193;-71
2023/05/24 04:51:19;;;;;;;2.90;2.53;;;8.60;99.90;;;;;;5056211;28;20542;-70
2023/05/24 04:53:45;;;;;;;4.83;2.37;;;8.70;99.90;;;;;;5073964;28;20447;-71
2023/05/24 04:56:13;;;;;;;8.33;3.73;;;8.80;99.90;;;;;;5073934;28;20502;-71
2023/05/24 04:58:39;;;;;;;3.30;3.00;;;8.90;99.90;;;;;;5073448;28;20186;-71
2023/05/24 05:01:05;;;;;;;4.83;2.57;;;9.00;99.90;;;;;;5073633;28;20408;-71
2023/05/24 05:03:30;;;;;;;3.43;2.17;;;9.10;99.90;;;;;;5073460;28;20167;-71
2023/05/24 05:05:56;;;;;;;6.60;3.23;;;9.20;99.90;;;;;;5073566;28;20832;-71
2023/05/24 05:08:22;;;;;;;5.60;2.73;;;9.40;99.90;;;;;;5072745;28;20185;-71
2023/05/24 05:10:47;;;;;;;5.70;2.80;;;9.50;99.90;;;;;;5073549;28;20171;-71
2023/05/24 05:13:13;;;;;;;5.87;3.00;;;9.60;99.90;;;;;;5073409;28;20178;-71
2023/05/24 05:15:38;;;;;;;8.80;2.80;;;9.80;99.90;;;;;;5073238;28;20632;-71
2023/05/24 05:18:04;;;;;;;3.43;2.30;;;10.00;99.90;;;;;;5072676;28;20236;-71
2023/05/24 05:20:29;;;;;;;6.17;2.77;;;10.10;99.90;;;;;;5072995;28;20231;-71
2023/05/24 05:22:55;;;;;;;8.87;2.60;;;10.30;99.90;;;;;;5073352;28;20174;-71
2023/05/24 05:25:20;;;;;;;8.60;2.70;;;10.50;99.90;;;;;;5073065;28;20732;-71
2023/05/24 05:27:46;;;;;;;9.33;2.00;;;10.70;99.90;;;;;;5072876;28;20186;-71
2023/05/24 05:30:12;;;;;;;4.57;2.93;;;10.90;99.90;;;;;;5073528;28;20194;-71
2023/05/24 05:32:37;;;;;;;6.80;2.40;;;11.20;99.90;;;;;;5055378;28;20173;-71
2023/05/24 05:35:04;;;;;;;5.03;3.20;;;11.50;99.90;;;;;;5073623;28;20893;-71
2023/05/24 05:37:30;;;;;;;5.10;2.90;;;11.80;99.90;;;;;;5055141;28;20611;-71
2023/05/24 05:39:55;;;;;;;7.73;3.07;;;12.20;99.90;;;;;;5073584;28;20483;-71
2023/05/24 05:42:21;;;;;;;5.17;2.60;;;12.60;99.90;;;;;;5073312;28;20170;-72
2023/05/24 05:44:46;;;;;;;5.20;3.57;;;13.00;99.90;;;;;;5072910;28;20653;-72
2023/05/24 05:47:12;;;;;;;4.80;3.20;;;13.60;99.90;;;;;;5072109;28;20843;-72
2023/05/24 05:49:37;;;;;;;6.07;3.40;;;14.20;99.90;;;;;;5072511;28;20166;-72
2023/05/24 05:52:06;;;;;;;6.80;3.40;;;14.80;99.90;;;;;;5072584;28;20650;-72
2023/05/24 05:54:31;;;;;;;10.70;3.97;;;15.50;99.90;;;;;;5072615;28;20235;-72
2023/05/24 05:56:57;;;;;;;10.03;2.60;;;16.00;99.90;;;;;;5072459;28;20432;-72
2023/05/24 05:59:23;;;;;;;10.00;4.33;;;16.60;99.90;;;;;;5073056;28;20162;-72
2023/05/24 06:01:49;;;;;;;8.47;3.10;;;17.40;99.90;;;;;;5055241;28;20225;-72
2023/05/24 06:04:15;;;;;;;4.80;3.07;;;18.10;99.90;;;;;;5073029;28;20162;-72
2023/05/24 06:06:41;;;;;;;12.00;3.47;;;18.90;99.90;;;;;;5073148;28;20452;-72
2023/05/24 06:09:07;;;;;;;6.90;5.20;;;19.70;99.90;;;;;;5072463;28;20759;-73
2023/05/24 06:11:32;;;;;;;5.40;3.30;;;20.50;99.90;;;;;;5072323;28;20169;-73
2023/05/24 06:13:58;;;;;;;7.10;2.90;;;21.30;97.40;;;;;;5072147;28;20460;-70
2023/05/24 06:16:23;;;;;;;7.97;2.27;;;22.10;92.00;;;;;;5072186;28;20220;-70
2023/05/24 06:18:49;;;;;;;7.07;3.03;;;22.80;84.50;;;;;;5071779;28;20196;-71
2023/05/24 06:21:15;;;;;;;7.30;2.63;;;23.50;77.10;;;;;;5071558;28;20554;-71
2023/05/24 06:23:41;;;;;;;3.10;2.17;;;24.30;70.80;;;;;;5072047;28;20253;-71
2023/05/24 06:26:08;;;;;;;3.40;2.40;;;24.80;62.80;;;;;;5071983;28;20456;-71
2023/05/24 06:28:36;;;;;;;6.37;3.43;;;25.40;59.90;;;;;;5071681;28;20428;-72
2023/05/24 06:31:03;;;;;;;3.57;2.77;;;25.90;55.90;;;;;;5071904;28;20415;-71
2023/05/24 06:33:29;;;;;;;5.90;2.77;;;26.40;53.50;;;;;;5071793;28;20431;-70
2023/05/24 06:35:54;;;;;;;5.10;2.77;;;26.80;51.50;;;;;;5071936;28;20401;-71
2023/05/24 06:38:20;;;;;;;7.07;2.50;;;27.30;50.10;;;;;;5071568;28;20435;-71
2023/05/24 06:40:45;;;;;;;4.83;2.80;;;27.70;48.30;;;;;;5071805;28;20167;-72
2023/05/24 06:43:11;;;;;;;10.33;3.13;;;28.10;46.90;;;;;;5071887;28;20178;-71
2023/05/24 06:45:37;;;;;;;5.40;2.77;;;28.50;45.10;;;;;;5071665;28;20559;-71
2023/05/24 06:48:02;;;;;;;5.83;3.20;;;28.80;43.50;;;;;;5071476;28;20193;-71
2023/05/24 06:50:28;;;;;;;6.07;3.23;;;29.10;43.50;;;;;;5071791;28;20188;-71
2023/05/24 06:52:53;;;;;;;10.47;3.20;;;29.50;42.80;;;;;;5071700;28;20177;-72
2023/05/24 06:55:19;;;;;;;6.87;2.63;;;29.90;41.90;;;;;;5071653;28;20181;-71
2023/05/24 06:57:45;;;;;;;9.60;4.00;;;30.40;41.10;;;;;;5071410;28;20216;-71
2023/05/24 07:00:11;;;;;;;8.00;3.60;;;31.00;40.50;;;;;;5071606;28;20192;-72
2023/05/24 07:02:40;;;;;;;12.40;4.47;;;31.30;39.10;;;;;;5071048;28;20193;-72
2023/05/24 07:05:11;;;;;;;4.00;2.60;;;31.30;38.60;;;;;;5071533;28;20408;-71
2023/05/24 07:07:41;;;;;;;6.43;3.30;;;31.00;37.60;;;;;;5071267;28;20515;-68
2023/05/24 07:10:07;;;;;;;7.40;2.13;;;30.30;37.40;;;;;;5071594;28;20458;-68
2023/05/24 07:12:33;;;;;;;7.80;2.60;;;29.50;38.10;;;;;;5071446;28;20404;-68
2023/05/24 07:14:59;;;;;;;3.90;2.37;;;28.70;39.30;;;;;;5071448;28;20426;-68
2023/05/24 07:17:25;;;;;;;5.50;2.87;;;28.30;40.40;;;;;;5071271;28;20185;-68
2023/05/24 07:19:50;;;;;;;4.97;2.60;;;28.00;40.90;;;;;;5071430;28;20181;-71
2023/05/24 07:22:16;;;;;;;6.00;3.90;;;27.60;41.40;;;;;;5071495;28;20159;-71
2023/05/24 07:24:41;;;;;;;6.80;3.30;;;27.10;40.70;;;;;;5071451;28;20166;-68
2023/05/24 07:27:07;;;;;;;8.33;4.47;;;26.40;41.40;;;;;;5071122;28;20206;-68
2023/05/24 07:29:33;;;;;;;7.80;3.53;;;26.30;42.10;;;;;;5071380;28;20166;-68
2023/05/24 07:31:59;;;;;;;11.23;4.10;;;26.70;42.50;;;;;;5072339;28;20525;-68
2023/05/24 07:34:26;;;;;;;6.60;3.13;;;28.10;42.40;;;;;;5075090;28;20158;-68
2023/05/24 07:36:52;;;;;;;5.63;3.20;;;28.80;40.00;;;;;;5074678;28;20414;-67
2023/05/24 07:39:18;;;;;;;9.30;3.83;;;28.90;40.00;;;;;;5075035;28;20419;-68
2023/05/24 07:41:43;;;;;;;6.87;4.33;;;30.10;40.40;;;;;;5074940;28;20170;-69
2023/05/24 07:44:10;;;;;;;7.40;4.43;;;31.90;38.60;;;;;;5074829;28;20166;-69
2023/05/24 07:46:36;;;;;;;5.73;3.77;;;33.70;36.90;;;;;;5074762;28;20198;-69
2023/05/24 07:49:02;;;;;;;14.10;4.73;;;34.70;34.00;;;;;;5074342;28;20478;-69
2023/05/24 07:51:28;;;;;;;11.13;4.20;;;35.20;33.40;;;;;;5074786;28;20178;-69
2023/05/24 07:53:53;;;;;;;8.17;4.70;;;34.90;31.30;;;;;;5074700;28;20170;-69
2023/05/24 07:56:19;;;;;;;5.10;4.30;;;33.90;31.10;;;;;;5074741;28;20197;-69
2023/05/24 07:58:45;;;;;;;6.90;4.83;;;32.80;31.80;;;;;;5074198;28;20186;-68
2023/05/24 08:01:12;;;;;;;9.70;5.50;;;31.80;32.10;;;;;;5074865;28;20170;-68
2023/05/24 08:03:38;;;;;;;6.40;4.03;;;30.50;32.80;;;;;;5073952;28;20578;-69
2023/05/24 08:06:04;;;;;;;17.40;5.20;;;29.20;33.90;;;;;;5073333;28;20451;-69
2023/05/24 08:08:29;;;;;;;9.97;4.70;;;29.00;36.50;;;;;;5073914;28;20420;-69
2023/05/24 08:10:55;;;;;;;9.37;5.03;;;30.50;36.70;;;;;;5074320;28;20241;-70
2023/05/24 08:13:20;;;;;;;6.30;4.80;;;32.80;35.10;;;;;;5074279;28;20200;-70
2023/05/24 08:15:46;;;;;;;11.60;5.20;;;35.00;32.70;;;;;;5074238;28;20529;-71
2023/05/24 08:18:11;;;;;;;9.87;5.40;;;36.90;31.10;;;;;;5073891;28;20606;-69
2023/05/24 08:20:37;;;;;;;9.20;5.50;;;38.40;30.00;;;;;;5074314;28;20173;-69
2023/05/24 08:23:03;;;;;;;7.60;5.17;;;39.30;28.90;;;;;;5074135;28;20167;-69
2023/05/24 08:25:29;;;;;;;7.10;5.50;;;38.70;27.30;;;;;;5074073;28;21048;-71
2023/05/24 08:27:57;;;;;;;4.93;4.40;;;37.50;27.70;;;;;;5073659;28;20179;-71
2023/05/24 08:30:23;;;;;;;9.87;4.70;;;36.80;28.10;;;;;;5074108;28;20165;-71
2023/05/24 08:32:51;;;;;;;4.27;3.87;;;36.90;28.20;;;;;;5074035;28;20412;-71
2023/05/24 08:35:16;;;;;;;9.30;4.30;;;36.30;27.70;;;;;;5073527;28;20925;-71
2023/05/24 08:37:42;;;;;;;4.73;4.10;;;35.10;28.10;;;;;;5073464;28;20460;-71
2023/05/24 08:40:08;;;;;;;7.03;4.13;;;34.90;29.00;;;;;;5067754;28;20371;-71
2023/05/24 08:42:37;;;;;;;8.03;4.50;;;34.20;28.50;;;;;;5023691;28;20230;-71
2023/05/24 08:45:09;;;;;;;7.60;3.80;;;33.30;29.00;;;;;;5031838;28;20464;-71
2023/05/24 08:47:36;;;;;;;5.20;3.80;;;32.50;29.50;;;;;;5033452;28;20411;-69
2023/05/24 08:50:03;;;;;;;7.73;4.00;;;31.40;29.90;;;;;;5033713;28;20919;-69
2023/05/24 08:52:30;;;;;;;5.90;3.37;;;30.20;30.70;;;;;;5033658;28;21081;-71
2023/05/24 08:54:58;;;;;;;8.20;4.57;;;28.90;31.90;;;;;;5033391;28;20900;-71
2023/05/24 08:57:26;;;;;;;12.20;4.93;;;27.70;33.30;;;;;;5033179;28;20434;-70
2023/05/24 08:59:54;;;;;;;7.03;3.73;;;26.60;34.60;;;;;;5033501;28;20422;-70
2023/05/24 09:02:20;;;;;;;11.43;4.17;;;25.60;36.40;;;;;;5033472;28;20819;-70
2023/05/24 09:04:48;;;;;;;8.73;4.10;;;24.80;37.00;;;;;;5033194;28;20438;-70
2023/05/24 09:07:18;;;;;;;7.37;3.57;;;24.00;38.10;;;;;;5032951;28;20200;-70
2023/05/24 09:09:49;;;;;;;6.00;3.63;;;23.50;39.30;;;;;;5033316;28;20410;-70
2023/05/24 09:12:17;;;;;;;7.97;4.50;;;23.20;40.60;;;;;;5033321;28;20403;-70
2023/05/24 09:14:46;;;;;;;8.40;4.13;;;22.80;40.80;;;;;;5033158;28;20422;-70
2023/05/24 09:17:15;;;;;;;7.33;3.30;;;22.50;41.60;;;;;;5032892;28;20505;-70
2023/05/24 09:19:47;;;;;;;9.00;3.27;;;22.10;42.00;;;;;;5033154;28;20517;-70
2023/05/24 09:22:13;;;;;;;4.40;3.40;;;21.70;42.40;;;;;;5033073;28;20433;-70
2023/05/24 09:24:42;;;;;;;12.33;4.13;;;21.20;43.30;;;;;;5033087;28;20434;-70
2023/05/24 09:27:08;;;;;;;7.40;3.93;;;20.80;44.10;;;;;;5032479;28;20544;-70
2023/05/24 09:29:37;;;;;;;8.20;3.60;;;20.40;45.10;;;;;;5032994;28;20490;-70
2023/05/24 09:32:06;;;;;;;4.83;3.13;;;20.10;46.30;;;;;;5032665;28;20705;-70
2023/05/24 09:34:41;;;;;;;10.87;3.60;;;19.80;47.20;;;;;;5032754;28;20402;-70
2023/05/24 09:37:27;;;;;;;6.97;2.60;;;19.80;48.20;;;;;;5032501;28;20953;-70
2023/05/24 09:39:54;;;;;;;9.80;3.13;;;20.00;49.10;;;;;;5032711;28;20895;-70
2023/05/24 09:42:25;;;;;;;11.30;2.77;;;20.50;49.60;;;;;;5032429;28;20752;-70
2023/05/24 09:45:10;;;;;;;7.50;3.60;;;21.40;49.70;;;;;;5032645;28;20801;-70
2023/05/24 09:47:40;;;;;;;3.27;2.50;;;22.60;47.90;;;;;;5032414;28;20497;-70
2023/05/24 09:50:16;;;;;;;6.70;3.33;;;24.70;47.80;;;;;;5032599;28;20398;-71
2023/05/24 09:52:42;;;;;;;4.23;2.80;;;28.40;44.10;;;;;;5032612;28;20394;-69
2023/05/24 09:55:15;;;;;;;4.23;2.83;;;31.60;39.80;;;;;;5031637;28;20444;-68
2023/05/24 09:57:49;;;;;;;6.23;3.33;;;32.90;35.50;;;;;;5032150;28;20821;-70
2023/05/24 10:00:20;;;;;;;5.60;3.20;;;32.90;33.20;;;;;;5032502;28;20419;-70
2023/05/24 10:02:58;;;;;;;8.73;3.23;;;32.30;32.70;;;;;;5032488;28;20449;-70
2023/05/24 10:05:24;;;;;;;7.20;3.40;;;31.30;32.50;;;;;;5032339;28;20918;-69
2023/05/24 10:07:51;;;;;;;3.67;2.30;;;30.00;33.20;;;;;;5031949;28;20458;-69
2023/05/24 10:10:16;;;;;;;4.70;2.20;;;28.80;34.00;;;;;;5032164;28;20213;-69
2023/05/24 10:12:45;;;;;;;9.13;2.80;;;27.80;35.40;;;;;;5032154;28;20501;-69
2023/05/24 10:15:11;;;;;;;8.17;3.30;;;27.60;36.60;;;;;;5032202;28;20219;-70
2023/05/24 10:17:36;;;;;;;6.40;2.83;;;27.80;36.80;;;;;;5031784;28;20422;-70
2023/05/24 10:20:05;;;;;;;6.40;3.07;;;28.10;36.40;;;;;;5032156;28;20568;-70
2023/05/24 10:22:34;;;;;;;6.70;2.47;;;28.10;36.20;;;;;;5032129;28;20526;-70
2023/05/24 10:25:03;;;;;;;6.90;2.77;;;27.70;36.20;;;;;;5031901;28;21083;-70
2023/05/24 10:27:31;;;;;;;6.60;2.87;;;27.30;36.70;;;;;;5031629;28;20450;-70
2023/05/24 10:30:08;;;;;;;7.20;2.87;;;27.00;36.90;;;;;;5032057;28;20394;-70
2023/05/24 10:32:36;;;;;;;8.57;3.13;;;26.70;37.40;;;;;;5032065;28;20752;-70
2023/05/24 10:35:04;;;;;;;6.57;3.40;;;26.40;37.60;;;;;;5031894;28;20915;-70
2023/05/24 10:37:31;;;;;;;5.50;3.00;;;26.20;38.40;;;;;;5031607;28;20426;-69
2023/05/24 10:39:57;;;;;;;6.90;3.20;;;26.40;38.70;;;;;;5031923;28;20426;-70
2023/05/24 10:42:23;;;;;;;7.70;3.27;;;26.90;38.80;;;;;;5031919;28;20407;-70
2023/05/24 10:44:49;;;;;;;4.93;2.97;;;27.10;38.20;;;;;;5031865;28;20422;-70
2023/05/24 10:47:15;;;;;;;8.17;3.47;;;27.00;38.00;;;;;;5031419;28;20282;-70
2023/05/24 10:49:56;;;;;;;5.77;3.60;;;26.90;37.80;;;;;;5031844;28;20206;-70
2023/05/24 10:52:34;;;;;;;11.87;2.63;;;26.70;38.40;;;;;;5031868;28;20402;-70
2023/05/24 10:55:04;;;;;;;4.63;2.90;;;26.80;38.90;;;;;;5031580;28;20412;-69
2023/05/24 10:57:31;;;;;;;3.40;2.40;;;26.80;38.70;;;;;;5031183;28;20426;-69
2023/05/24 10:59:57;;;;;;;3.40;2.70;;;26.70;38.10;;;;;;5031668;28;20403;-69
2023/05/24 11:02:27;;;;;;;7.33;2.40;;;26.90;38.40;;;;;;5031697;28;20413;-68
2023/05/24 11:04:55;;;;;;;6.80;2.40;;;27.40;38.60;;;;;;5031657;28;20164;-69
2023/05/24 11:07:20;;;;;;;6.67;3.20;;;27.60;37.90;;;;;;5033185;28;20541;-69
2023/05/24 11:09:51;;;;;;;3.60;2.50;;;27.70;38.00;;;;;;5035559;28;20494;-69
2023/05/24 11:12:19;;;;;;;6.97;2.70;;;28.20;38.30;;;;;;5035549;28;20687;-69
2023/05/24 11:14:51;;;;;;;4.53;2.70;;;29.40;37.30;;;;;;5035502;28;20410;-69
2023/05/24 11:17:21;;;;;;;7.03;3.27;;;31.10;36.80;;;;;;5035109;28;20422;-70
2023/05/24 11:19:51;;;;;;;10.83;2.30;;;32.90;35.10;;;;;;5035695;28;20926;-71
2023/05/24 11:22:19;;;;;;;5.30;2.47;;;34.70;33.60;;;;;;5035313;28;20410;-70
2023/05/24 11:24:46;;;;;;;3.33;3.00;;;34.90;31.30;;;;;;5035448;28;20403;-70
2023/05/24 11:27:13;;;;;;;4.60;3.00;;;34.10;30.00;;;;;;5034741;28;20890;-70
2023/05/24 11:29:46;;;;;;;6.27;2.83;;;33.30;30.80;;;;;;5035248;28;20402;-70
2023/05/24 11:32:18;;;;;;;5.17;2.77;;;32.80;31.00;;;;;;5035134;28;20467;-69
2023/05/24 11:34:47;;;;;;;6.67;3.23;;;32.90;31.80;;;;;;5035197;28;20433;-70
2023/05/24 11:37:14;;;;;;;8.70;2.20;;;32.80;31.30;;;;;;5034730;28;20426;-70
2023/05/24 11:39:40;;;;;;;4.07;2.80;;;32.40;31.40;;;;;;5035037;28;20883;-70
2023/05/24 11:42:07;;;;;;;5.13;3.13;;;32.20;31.70;;;;;;5035015;28;20464;-70
2023/05/24 11:44:34;;;;;;;8.20;3.30;;;31.80;31.90;;;;;;5035016;28;20164;-70
2023/05/24 11:47:05;;;;;;;3.40;2.60;;;31.20;32.00;;;;;;5034484;28;20450;-69
2023/05/24 11:49:30;;;;;;;3.47;2.40;;;30.60;32.20;;;;;;5034723;28;20398;-69
2023/05/24 11:51:58;;;;;;;5.87;2.23;;;30.10;33.00;;;;;;5034434;28;20402;-70
2023/05/24 11:54:25;;;;;;;4.60;2.50;;;29.70;33.30;;;;;;5034765;28;20182;-69
2023/05/24 11:56:52;;;;;;;7.77;2.80;;;29.10;33.50;;;;;;5034424;28;20424;-69
2023/05/24 11:59:25;;;;;;;6.00;2.23;;;28.40;34.10;;;;;;5034682;28;20412;-69
2023/05/24 12:02:00;;;;;;;4.70;2.70;;;27.70;34.90;;;;;;5034792;28;20424;-69
2023/05/24 12:04:27;;;;;;;4.70;2.73;;;26.90;35.00;;;;;;5034565;28;20821;-69
2023/05/24 12:06:53;;;;;;;2.60;2.33;;;26.20;35.80;;;;;;5034191;28;20985;-69
2023/05/24 12:09:19;;;;;;;8.40;4.67;;;25.50;36.70;;;;;;5034472;28;20412;-69
2023/05/24 12:11:49;;;;;;;5.73;3.17;;;24.70;36.80;;;;;;5034496;28;20426;-69
2023/05/24 12:14:27;;;;;;;5.37;3.40;;;23.90;37.00;;;;;;5034043;28;20180;-69
2023/05/24 12:16:57;;;;;;;4.73;3.13;;;23.10;37.90;;;;;;5033984;28;20409;-69
2023/05/24 12:19:25;;;;;;;7.90;2.93;;;22.50;38.70;;;;;;5032901;28;20444;-69
2023/05/24 12:21:57;;;;;;;6.27;3.30;;;21.90;39.70;;;;;;5034199;28;20766;-69
2023/05/24 12:24:24;;;;;;;4.10;3.20;;;21.40;40.20;;;;;;5016220;28;20426;-69
2023/05/24 12:26:50;;;;;;;7.40;2.73;;;21.20;41.00;;;;;;5033866;28;20466;-69
2023/05/24 12:29:16;;;;;;;7.30;3.43;;;21.00;41.80;;;;;;5034061;28;20436;-69
2023/05/24 12:31:47;;;;;;;5.33;3.03;;;20.80;42.40;;;;;;5034027;28;20429;-69
2023/05/24 12:34:15;;;;;;;4.23;3.30;;;20.80;43.00;;;;;;5034035;28;20811;-69
2023/05/24 12:36:45;;;;;;;5.47;3.40;;;20.80;43.40;;;;;;5032458;28;20422;-69
2023/05/24 12:39:29;;;;;;;8.10;3.67;;;20.80;43.60;;;;;;5033837;28;20407;-69
2023/05/24 12:41:56;;;;;;;7.10;3.07;;;20.80;43.90;;;;;;5033922;28;20402;-70
2023/05/24 12:44:33;;;;;;;5.87;3.10;;;20.80;43.60;;;;;;5033814;28;20907;-68
2023/05/24 12:47:01;;;;;;;3.70;2.60;;;20.70;43.90;;;;;;5033377;28;20957;-68
2023/05/24 12:49:27;;;;;;;5.40;2.83;;;20.60;44.00;;;;;;5033729;28;20930;-69
2023/05/24 12:51:54;;;;;;;11.17;2.47;;;20.60;44.20;;;;;;5033628;28;20430;-69